createdAt,value
2023-01-31T00:01:48.489Z,4.50
2023-01-31T00:04:15.360Z,4.50
2023-01-31T00:06:44.999Z,4.50
2023-01-31T00:09:12.915Z,4.50
2023-01-31T00:11:40.129Z,4.50
2023-01-31T00:14:08.848Z,4.50
2023-01-31T00:16:38.486Z,4.50
2023-01-31T00:19:08.429Z,4.50
2023-01-31T00:21:41.676Z,4.50
2023-01-31T00:24:08.563Z,4.40
2023-01-31T00:26:36.155Z,4.50
2023-01-31T00:29:04.994Z,4.40
2023-01-31T00:31:33.931Z,4.40
2023-01-31T00:34:01.697Z,4.40
2023-01-31T00:36:37.760Z,4.40
2023-01-31T00:39:06.120Z,4.40
2023-01-31T00:41:36.899Z,4.40
2023-01-31T00:44:08.779Z,4.40
2023-01-31T00:46:38.372Z,4.40
2023-01-31T00:49:05.863Z,4.50
2023-01-31T00:51:32.830Z,4.50
2023-01-31T00:53:59.642Z,4.40
2023-01-31T00:56:26.664Z,4.40
2023-01-31T00:58:53.956Z,4.40
2023-01-31T01:01:28.796Z,4.50
2023-01-31T01:03:59.247Z,4.50
2023-01-31T01:06:28.743Z,4.50
2023-01-31T01:08:59.746Z,4.50
2023-01-31T01:11:32.184Z,4.50
2023-01-31T01:14:02.080Z,4.50
2023-01-31T01:16:37.105Z,4.60
2023-01-31T01:19:07.192Z,4.60
2023-01-31T01:21:44.428Z,4.60
2023-01-31T01:24:19.746Z,4.60
2023-01-31T01:26:48.804Z,4.70
2023-01-31T01:29:18.005Z,4.70
2023-01-31T01:31:45.052Z,4.70
2023-01-31T01:34:14.926Z,4.70
2023-01-31T01:36:42.771Z,4.70
2023-01-31T01:39:14.210Z,4.70
2023-01-31T01:41:42.607Z,4.70
2023-01-31T01:44:48.276Z,4.70
2023-01-31T01:47:18.428Z,4.70
2023-01-31T01:49:49.540Z,4.70
2023-01-31T01:52:17.669Z,4.70
2023-01-31T01:54:53.665Z,4.70
2023-01-31T01:57:25.066Z,4.70
2023-01-31T02:00:09.650Z,4.70
2023-01-31T02:02:45.971Z,4.70
2023-01-31T02:05:19.816Z,4.70
2023-01-31T02:07:47.125Z,4.70
2023-01-31T02:10:28.856Z,4.80
2023-01-31T02:13:01.235Z,4.70
2023-01-31T02:15:32.956Z,4.80
2023-01-31T02:18:00.282Z,4.80
2023-01-31T02:20:43.563Z,4.80
2023-01-31T02:23:47.803Z,4.80
2023-01-31T02:26:33.422Z,4.80
2023-01-31T02:29:32.596Z,4.80
2023-01-31T02:32:35.375Z,4.80
2023-01-31T02:35:34.646Z,4.80
2023-01-31T02:38:28.542Z,4.70
2023-01-31T02:41:35.576Z,4.70
2023-01-31T02:44:27.743Z,4.70
2023-01-31T02:46:54.530Z,4.70
2023-01-31T02:49:50.636Z,4.60
2023-01-31T02:52:42.492Z,4.60
2023-01-31T02:55:51.118Z,4.50
2023-01-31T02:58:22.195Z,4.50
2023-01-31T03:00:49.695Z,4.50
2023-01-31T03:03:27.100Z,4.40
2023-01-31T03:06:22.954Z,4.40
2023-01-31T03:09:02.564Z,4.40
2023-01-31T03:11:46.096Z,4.40
2023-01-31T03:14:21.618Z,4.30
2023-01-31T03:17:18.417Z,4.30
2023-01-31T03:20:01.702Z,4.30
2023-01-31T03:22:39.187Z,4.30
2023-01-31T03:25:11.768Z,4.20
2023-01-31T03:27:44.463Z,4.20
2023-01-31T03:30:28.295Z,4.20
2023-01-31T03:33:10.898Z,4.20
2023-01-31T03:35:42.164Z,4.20
2023-01-31T03:38:16.732Z,4.10
2023-01-31T03:41:05.943Z,4.10
2023-01-31T03:43:50.744Z,4.10
2023-01-31T03:46:31.016Z,4.10
2023-01-31T03:49:04.385Z,4.10
2023-01-31T03:51:41.897Z,4.10
2023-01-31T03:54:14.839Z,4.10
2023-01-31T03:56:47.608Z,4.10
2023-01-31T03:59:22.733Z,4.10
2023-01-31T04:01:55.350Z,4.10
2023-01-31T04:04:37.153Z,4.00
2023-01-31T04:07:05.952Z,4.00
2023-01-31T04:09:37.556Z,4.00
2023-01-31T04:12:05.176Z,4.00
2023-01-31T04:14:32.451Z,4.00
2023-01-31T04:16:59.397Z,4.00
2023-01-31T04:19:28.744Z,3.90
2023-01-31T04:21:55.587Z,4.00
2023-01-31T04:24:22.495Z,3.90
2023-01-31T04:26:51.620Z,3.90
2023-01-31T04:29:18.522Z,3.90
2023-01-31T04:31:47.687Z,3.90
2023-01-31T04:34:14.656Z,3.90
2023-01-31T04:36:43.975Z,3.90
2023-01-31T04:39:13.200Z,3.90
2023-01-31T04:41:40.082Z,3.90
2023-01-31T04:44:06.967Z,3.90
2023-01-31T04:46:36.500Z,3.90
2023-01-31T04:49:06.082Z,3.90
2023-01-31T04:51:33.077Z,3.90
2023-01-31T04:54:02.272Z,3.90
2023-01-31T04:56:34.539Z,3.90
2023-01-31T04:59:04.519Z,3.90
2023-01-31T05:01:31.900Z,3.90
2023-01-31T05:04:03.649Z,3.90
2023-01-31T05:06:30.609Z,4.00
2023-01-31T05:09:01.390Z,3.90
2023-01-31T05:11:30.702Z,3.90
2023-01-31T05:14:00.372Z,3.90
2023-01-31T05:16:29.576Z,3.90
2023-01-31T05:18:56.547Z,4.00
2023-01-31T05:21:25.957Z,4.00
2023-01-31T05:23:52.872Z,4.00
2023-01-31T05:26:20.079Z,4.00
2023-01-31T05:28:46.917Z,4.00
2023-01-31T05:31:18.821Z,4.00
2023-01-31T05:33:48.803Z,4.00
2023-01-31T05:36:15.691Z,4.10
2023-01-31T05:38:44.915Z,4.10
2023-01-31T05:41:11.791Z,4.10
2023-01-31T05:43:38.594Z,4.10
2023-01-31T05:46:10.086Z,4.20
2023-01-31T05:48:37.071Z,4.20
2023-01-31T05:51:04.077Z,4.20
2023-01-31T05:53:31.195Z,4.20
2023-01-31T05:56:00.421Z,4.30
2023-01-31T05:58:27.297Z,4.30
2023-01-31T06:00:57.126Z,4.30
2023-01-31T06:03:24.050Z,4.30
2023-01-31T06:05:53.027Z,4.30
2023-01-31T06:08:19.877Z,4.30
2023-01-31T06:10:46.736Z,4.30
2023-01-31T06:13:13.620Z,4.40
2023-01-31T06:15:46.591Z,4.40
2023-01-31T06:18:14.500Z,4.40
2023-01-31T06:20:41.412Z,4.40
2023-01-31T06:23:08.269Z,4.40
2023-01-31T06:25:35.045Z,4.40
2023-01-31T06:28:01.915Z,4.50
2023-01-31T06:30:32.092Z,4.50
2023-01-31T06:33:02.421Z,4.50
2023-01-31T06:35:29.842Z,4.50
2023-01-31T06:37:56.975Z,4.50
2023-01-31T06:40:23.913Z,4.50
2023-01-31T06:42:50.804Z,4.50
2023-01-31T06:45:20.188Z,4.50
2023-01-31T06:47:47.439Z,4.50
2023-01-31T06:50:14.273Z,4.50
2023-01-31T06:52:44.038Z,4.60
2023-01-31T06:55:13.573Z,4.60
2023-01-31T06:57:49.921Z,4.60
2023-01-31T07:00:18.679Z,4.60
2023-01-31T07:02:50.615Z,4.60
2023-01-31T07:05:20.725Z,4.60
2023-01-31T07:07:49.751Z,4.60
2023-01-31T07:10:17.531Z,4.60
2023-01-31T07:12:44.420Z,4.60
2023-01-31T07:15:11.595Z,4.60
2023-01-31T07:17:41.214Z,4.60
2023-01-31T07:20:08.696Z,4.70
2023-01-31T07:22:35.565Z,4.70
2023-01-31T07:25:02.506Z,4.70
2023-01-31T07:27:32.329Z,4.70
2023-01-31T07:30:02.267Z,4.70
2023-01-31T07:32:31.130Z,4.70
2023-01-31T07:34:58.023Z,4.70
2023-01-31T07:37:25.080Z,4.80
2023-01-31T07:39:51.946Z,4.70
2023-01-31T07:42:18.880Z,4.80
2023-01-31T07:44:45.793Z,4.80
2023-01-31T07:47:14.887Z,4.80
2023-01-31T07:49:41.703Z,4.80
2023-01-31T07:52:09.485Z,4.80
2023-01-31T07:54:36.469Z,4.90
2023-01-31T07:57:05.875Z,4.90
2023-01-31T07:59:34.863Z,4.90
2023-01-31T08:02:23.168Z,4.90
2023-01-31T08:04:50.070Z,4.90
2023-01-31T08:07:16.917Z,5.00
2023-01-31T08:09:50.214Z,5.00
2023-01-31T08:12:17.177Z,5.00
2023-01-31T08:14:44.297Z,5.00
2023-01-31T08:17:11.662Z,5.00
2023-01-31T08:19:38.621Z,5.00
2023-01-31T08:22:10.410Z,5.00
2023-01-31T08:24:37.320Z,5.10
2023-01-31T08:27:06.464Z,5.00
2023-01-31T08:29:33.360Z,5.00
2023-01-31T08:32:03.202Z,5.10
2023-01-31T08:34:30.373Z,5.10
2023-01-31T08:36:57.316Z,5.10
2023-01-31T08:39:24.187Z,5.10
2023-01-31T08:41:51.873Z,5.10
2023-01-31T08:44:18.732Z,5.10
2023-01-31T08:46:45.751Z,5.10
2023-01-31T08:49:12.905Z,5.10
2023-01-31T08:51:39.775Z,5.10
2023-01-31T08:54:12.918Z,5.10
2023-01-31T08:56:43.095Z,5.10
2023-01-31T08:59:14.185Z,5.10
2023-01-31T09:01:46.800Z,5.20
2023-01-31T09:04:15.937Z,5.20
2023-01-31T09:06:42.736Z,5.20
2023-01-31T09:09:10.320Z,5.20
2023-01-31T09:11:37.179Z,5.20
2023-01-31T09:14:06.849Z,5.30
2023-01-31T09:16:33.823Z,5.30
2023-01-31T09:19:03.548Z,5.30
2023-01-31T09:21:31.124Z,5.30
2023-01-31T09:24:02.181Z,5.30
2023-01-31T09:26:32.247Z,5.30
2023-01-31T09:29:01.807Z,5.40
2023-01-31T09:31:31.439Z,5.40
2023-01-31T09:33:58.466Z,5.40
2023-01-31T09:36:25.319Z,5.40
2023-01-31T09:38:57.189Z,5.50
2023-01-31T09:41:27.269Z,5.50
2023-01-31T09:44:03.739Z,5.50
2023-01-31T09:46:37.296Z,5.60
2023-01-31T09:49:07.579Z,5.60
2023-01-31T09:51:35.257Z,5.70
2023-01-31T09:54:06.368Z,5.70
2023-01-31T09:56:41.218Z,5.70
2023-01-31T09:59:29.700Z,5.70
2023-01-31T10:02:29.685Z,5.70
2023-01-31T10:05:12.495Z,5.80
2023-01-31T10:07:48.172Z,5.80
2023-01-31T10:10:35.523Z,5.90
2023-01-31T10:13:29.590Z,5.90
2023-01-31T10:16:04.581Z,5.90
2023-01-31T10:18:37.048Z,5.90
2023-01-31T10:21:12.897Z,5.90
2023-01-31T10:23:46.448Z,5.90
2023-01-31T10:26:18.462Z,5.90
2023-01-31T10:28:55.261Z,5.90
2023-01-31T10:31:36.186Z,5.90
2023-01-31T10:34:14.910Z,5.90
2023-01-31T10:36:51.033Z,5.90
2023-01-31T10:39:30.100Z,5.90
2023-01-31T10:42:00.231Z,6.00
2023-01-31T10:44:54.419Z,6.00
2023-01-31T10:47:32.859Z,6.10
2023-01-31T10:49:59.953Z,6.10
2023-01-31T10:52:50.753Z,6.30
2023-01-31T10:55:25.851Z,6.30
2023-01-31T10:57:54.299Z,6.30
2023-01-31T11:00:26.330Z,6.20
2023-01-31T11:02:53.273Z,6.20
2023-01-31T11:05:23.603Z,6.30
2023-01-31T11:07:53.202Z,6.30
2023-01-31T11:10:28.776Z,6.30
2023-01-31T11:13:01.986Z,6.40
2023-01-31T11:15:36.103Z,6.30
2023-01-31T11:18:03.748Z,6.30
2023-01-31T11:20:34.068Z,6.20
2023-01-31T11:23:05.930Z,6.20
2023-01-31T11:25:37.014Z,6.20
2023-01-31T11:28:18.491Z,6.20
2023-01-31T11:30:51.559Z,6.10
2023-01-31T11:33:57.114Z,6.10
2023-01-31T11:36:24.398Z,6.20
2023-01-31T11:38:51.595Z,6.10
2023-01-31T11:41:29.809Z,6.20
2023-01-31T11:44:11.187Z,6.20
2023-01-31T11:46:55.853Z,6.20
2023-01-31T11:49:32.020Z,6.10
2023-01-31T11:52:02.652Z,6.20
2023-01-31T11:54:33.835Z,6.10
2023-01-31T11:57:02.019Z,6.10
2023-01-31T11:59:32.918Z,6.10
2023-01-31T12:02:00.801Z,6.10
2023-01-31T12:04:39.912Z,6.10
2023-01-31T12:07:31.955Z,6.10
2023-01-31T12:09:58.918Z,6.10
2023-01-31T12:12:36.104Z,6.00
2023-01-31T12:15:13.087Z,6.10
2023-01-31T12:17:47.430Z,6.00
2023-01-31T12:20:28.259Z,6.00
2023-01-31T12:23:17.491Z,6.00
2023-01-31T12:26:03.409Z,6.00
2023-01-31T12:28:46.744Z,5.90
2023-01-31T12:31:38.554Z,5.90
2023-01-31T12:34:59.517Z,5.90
2023-01-31T12:37:45.003Z,5.80
2023-01-31T12:40:42.153Z,5.80
2023-01-31T12:43:12.113Z,5.80
2023-01-31T12:45:59.316Z,5.80
2023-01-31T12:49:04.614Z,5.80
2023-01-31T12:51:59.357Z,5.80
2023-01-31T12:59:13.887Z,5.70
2023-01-31T13:02:22.977Z,5.70
2023-01-31T13:04:58.004Z,5.60
2023-01-31T13:07:32.668Z,5.60
2023-01-31T13:10:03.036Z,5.60
2023-01-31T13:12:32.922Z,5.50
2023-01-31T13:15:15.668Z,5.60
2023-01-31T13:17:43.790Z,5.60
2023-01-31T13:20:22.483Z,5.60
2023-01-31T13:22:55.207Z,5.60
2023-01-31T13:25:33.012Z,5.60
2023-01-31T13:28:25.075Z,5.60
2023-01-31T13:30:57.711Z,5.60
2023-01-31T13:33:28.108Z,5.60
2023-01-31T13:36:36.634Z,5.50
2023-01-31T13:39:15.623Z,5.50
2023-01-31T13:41:44.980Z,5.50
2023-01-31T13:44:15.135Z,5.50
2023-01-31T13:46:53.294Z,5.50
2023-01-31T13:49:29.684Z,5.50
2023-01-31T13:52:03.527Z,5.50
2023-01-31T13:54:36.759Z,5.50
2023-01-31T13:57:05.640Z,5.50
2023-01-31T13:59:37.763Z,5.50
2023-01-31T14:02:16.887Z,5.50
2023-01-31T14:04:47.096Z,5.50
2023-01-31T14:07:21.621Z,5.60
2023-01-31T14:09:51.250Z,5.60
2023-01-31T14:12:18.068Z,5.50
2023-01-31T14:14:59.017Z,5.60
2023-01-31T14:17:29.031Z,5.60
2023-01-31T14:19:55.873Z,5.60
2023-01-31T14:22:41.391Z,5.60
2023-01-31T14:25:13.621Z,5.60
2023-01-31T14:27:55.643Z,5.60
2023-01-31T14:30:40.031Z,5.60
2023-01-31T14:33:12.891Z,5.50
2023-01-31T14:36:02.782Z,5.50
2023-01-31T14:38:29.652Z,5.60
2023-01-31T14:41:10.095Z,5.60
2023-01-31T14:44:06.796Z,5.60
2023-01-31T14:46:39.523Z,5.60
2023-01-31T14:49:24.698Z,5.60
2023-01-31T14:52:13.141Z,5.60
2023-01-31T14:55:07.811Z,5.60
2023-01-31T14:57:42.545Z,5.60
2023-01-31T15:00:15.503Z,5.60
2023-01-31T15:03:00.886Z,5.60
2023-01-31T15:05:37.458Z,5.70
2023-01-31T15:08:13.356Z,5.70
2023-01-31T15:11:17.433Z,5.70
2023-01-31T15:13:48.339Z,5.70
2023-01-31T15:16:21.050Z,5.70
2023-01-31T15:18:59.982Z,5.70
2023-01-31T15:21:34.630Z,5.70
2023-01-31T15:24:02.616Z,5.70
2023-01-31T15:26:35.571Z,5.70
2023-01-31T15:29:33.003Z,5.80
2023-01-31T15:32:09.121Z,5.80
2023-01-31T15:34:47.436Z,5.80
2023-01-31T15:37:25.078Z,5.80
2023-01-31T15:40:00.352Z,5.80
2023-01-31T15:42:34.026Z,5.80
2023-01-31T15:45:30.568Z,5.80
2023-01-31T15:48:06.109Z,5.80
2023-01-31T15:50:34.059Z,5.80
2023-01-31T15:53:17.094Z,5.80
2023-01-31T15:55:46.755Z,5.80
2023-01-31T15:58:25.799Z,5.80
2023-01-31T16:00:55.641Z,5.80
2023-01-31T16:03:25.415Z,5.80
2023-01-31T16:05:57.342Z,5.80
2023-01-31T16:08:34.196Z,5.80
2023-01-31T16:11:06.044Z,5.90
2023-01-31T16:13:38.486Z,5.90
2023-01-31T16:16:19.571Z,5.90
2023-01-31T16:18:53.498Z,5.90
2023-01-31T16:21:35.927Z,5.90
2023-01-31T16:24:12.027Z,5.90
2023-01-31T16:26:48.187Z,6.00
2023-01-31T16:29:18.560Z,6.00
2023-01-31T16:31:55.265Z,6.00
2023-01-31T16:34:26.428Z,6.00
2023-01-31T16:36:56.186Z,6.00
2023-01-31T16:39:44.827Z,6.00
2023-01-31T16:42:35.140Z,6.00
2023-01-31T16:45:03.089Z,6.00
2023-01-31T16:47:35.267Z,6.00
2023-01-31T16:50:22.648Z,6.00
2023-01-31T16:53:06.622Z,6.00
2023-01-31T16:55:33.500Z,6.00
2023-01-31T16:58:02.678Z,6.00
2023-01-31T17:00:34.165Z,6.10
2023-01-31T17:03:01.942Z,6.10
2023-01-31T17:05:46.458Z,6.10
2023-01-31T17:08:17.640Z,6.10
2023-01-31T17:10:47.458Z,6.10
2023-01-31T17:13:22.106Z,6.10
2023-01-31T17:15:50.018Z,6.10
2023-01-31T17:18:17.475Z,6.10
2023-01-31T17:20:49.224Z,6.10
2023-01-31T17:23:16.487Z,6.10
2023-01-31T17:25:43.921Z,6.10
2023-01-31T17:28:11.440Z,6.10
2023-01-31T17:30:45.415Z,6.10
2023-01-31T17:33:14.021Z,6.20
2023-01-31T17:35:45.269Z,6.20
2023-01-31T17:38:12.150Z,6.10
2023-01-31T17:40:43.260Z,6.10
2023-01-31T17:43:22.021Z,6.10
2023-01-31T17:45:48.948Z,6.10
2023-01-31T17:48:26.396Z,6.10
2023-01-31T17:50:53.853Z,6.10
2023-01-31T17:53:20.745Z,6.20
2023-01-31T17:55:47.661Z,6.20
2023-01-31T17:58:15.751Z,6.10
2023-01-31T18:00:46.127Z,6.20
2023-01-31T18:03:18.753Z,6.20
2023-01-31T18:05:46.491Z,6.10
2023-01-31T18:08:14.070Z,6.10
2023-01-31T18:10:43.700Z,6.10
2023-01-31T18:13:13.004Z,6.10
2023-01-31T18:15:40.150Z,6.10
2023-01-31T18:18:10.294Z,6.10
2023-01-31T18:20:39.186Z,6.20
2023-01-31T18:23:08.375Z,6.20
2023-01-31T18:25:35.276Z,6.30
2023-01-31T18:28:02.091Z,6.30
2023-01-31T18:30:29.013Z,6.30
2023-01-31T18:32:55.907Z,6.30
2023-01-31T18:35:23.134Z,6.30
2023-01-31T18:37:53.404Z,6.30
2023-01-31T18:40:20.318Z,6.30
2023-01-31T18:42:47.126Z,6.40
2023-01-31T18:45:14.070Z,6.30
2023-01-31T18:47:40.911Z,6.40
2023-01-31T18:50:11.655Z,6.40
2023-01-31T18:52:42.119Z,6.40
2023-01-31T18:55:09.129Z,6.40
2023-01-31T18:57:38.757Z,6.40
2023-01-31T19:00:06.175Z,6.40
2023-01-31T19:02:33.146Z,6.40
2023-01-31T19:05:00.447Z,6.40
2023-01-31T19:07:32.200Z,6.40
2023-01-31T19:10:03.170Z,6.50
2023-01-31T19:12:33.444Z,6.50
2023-01-31T19:15:00.348Z,6.50
2023-01-31T19:17:29.405Z,6.50
2023-01-31T19:19:58.557Z,6.50
2023-01-31T19:22:30.363Z,6.50
2023-01-31T19:24:58.373Z,6.50
2023-01-31T19:27:28.196Z,6.50
2023-01-31T19:29:55.111Z,6.50
2023-01-31T19:32:24.296Z,6.50
2023-01-31T19:34:53.925Z,6.60
2023-01-31T19:37:20.962Z,6.60
2023-01-31T19:39:47.936Z,6.60
2023-01-31T19:42:14.791Z,6.40
2023-01-31T19:49:10.480Z,5.70
2023-01-31T19:51:41.211Z,5.30
2023-01-31T19:54:12.921Z,5.30
2023-01-31T19:56:39.955Z,5.20
2023-01-31T19:59:06.801Z,5.20
2023-01-31T20:01:34.117Z,5.20
2023-01-31T20:04:00.981Z,5.20
2023-01-31T20:06:29.799Z,5.10
2023-01-31T20:08:59.465Z,5.20
2023-01-31T20:11:28.184Z,5.20
2023-01-31T20:13:58.022Z,5.20
2023-01-31T20:16:25.345Z,5.20
2023-01-31T20:18:54.731Z,5.20
2023-01-31T20:21:24.589Z,5.20
2023-01-31T20:23:51.649Z,5.20
2023-01-31T20:26:20.846Z,5.20
2023-01-31T20:28:47.830Z,5.30
2023-01-31T20:31:16.514Z,5.30
2023-01-31T20:33:46.030Z,5.20
2023-01-31T20:36:13.298Z,5.20
2023-01-31T20:38:40.577Z,5.30
2023-01-31T20:41:09.123Z,5.20
2023-01-31T20:43:38.116Z,5.30
2023-01-31T20:46:10.344Z,5.30
2023-01-31T20:48:41.097Z,5.30
2023-01-31T20:51:08.568Z,5.30
2023-01-31T20:53:38.377Z,5.30
2023-01-31T20:56:07.849Z,5.30
2023-01-31T20:58:36.233Z,5.30
2023-01-31T21:01:07.043Z,5.30
2023-01-31T21:03:35.115Z,5.30
2023-01-31T21:06:02.892Z,5.20
2023-01-31T21:08:31.809Z,5.20
2023-01-31T21:10:59.498Z,5.20
2023-01-31T21:13:29.983Z,5.20
2023-01-31T21:15:59.023Z,5.20
2023-01-31T21:18:28.104Z,5.20
2023-01-31T21:20:55.732Z,5.20
2023-01-31T21:23:25.616Z,5.20
2023-01-31T21:25:52.575Z,5.30
2023-01-31T21:28:19.479Z,5.30
2023-01-31T21:30:57.873Z,5.40
2023-01-31T21:33:25.215Z,5.40
2023-01-31T21:35:52.143Z,5.40
2023-01-31T21:38:19.021Z,5.50
2023-01-31T21:40:45.901Z,5.50
2023-01-31T21:43:12.722Z,5.50
2023-01-31T21:45:41.947Z,5.50
2023-01-31T21:48:29.353Z,5.50
2023-01-31T21:50:56.945Z,5.50
2023-01-31T21:53:23.815Z,5.60
2023-01-31T21:56:04.597Z,5.40
2023-01-31T21:58:34.718Z,5.20
2023-01-31T22:01:09.605Z,5.00
2023-01-31T22:03:38.114Z,4.90
2023-01-31T22:06:07.637Z,4.90
2023-01-31T22:08:36.748Z,4.80
2023-01-31T22:11:06.907Z,4.80
2023-01-31T22:13:34.295Z,4.80
2023-01-31T22:16:10.543Z,4.70
2023-01-31T22:18:38.820Z,4.70
2023-01-31T22:21:13.180Z,4.70
2023-01-31T22:23:41.395Z,4.70
2023-01-31T22:26:11.498Z,4.70
2023-01-31T22:28:41.193Z,4.70
2023-01-31T22:31:09.110Z,4.70
2023-01-31T22:33:40.260Z,4.70
2023-01-31T22:36:09.170Z,4.70
2023-01-31T22:38:39.362Z,4.70
2023-01-31T22:41:09.533Z,4.70
2023-01-31T22:43:38.404Z,4.70
2023-01-31T22:46:07.721Z,4.70
2023-01-31T22:48:35.990Z,4.70
2023-01-31T22:51:05.763Z,4.70
2023-01-31T22:53:34.999Z,4.70
2023-01-31T22:56:04.416Z,4.70
2023-01-31T22:58:33.388Z,4.70
2023-01-31T23:01:03.286Z,4.70
2023-01-31T23:03:30.218Z,4.80
2023-01-31T23:05:57.067Z,4.80
2023-01-31T23:08:23.899Z,4.70
2023-01-31T23:10:55.466Z,4.80
2023-01-31T23:13:22.388Z,4.80
2023-01-31T23:15:53.874Z,4.80
2023-01-31T23:18:23.069Z,4.80
2023-01-31T23:20:49.921Z,4.80
2023-01-31T23:23:19.325Z,4.90
2023-01-31T23:25:46.401Z,4.90
2023-01-31T23:28:13.206Z,4.90
2023-01-31T23:30:39.988Z,5.00
2023-01-31T23:33:06.788Z,4.90
2023-01-31T23:35:36.137Z,5.00
2023-01-31T23:38:05.251Z,5.00
2023-01-31T23:40:36.989Z,5.00
2023-01-31T23:43:03.839Z,5.00
2023-01-31T23:45:31.216Z,5.00
2023-01-31T23:47:58.144Z,5.00
2023-01-31T23:50:28.485Z,5.00
2023-01-31T23:52:55.388Z,5.00
2023-01-31T23:55:22.803Z,5.00
2023-01-31T23:57:50.385Z,5.00
